NCAR-RAP Real-Time Weather Data

Output produced by METARs form (24 April 2018  16:02 UTC)
found at http://weather.rap.ucar.edu/surface/
 
Conditions at: KALB observed 24 April 2018  15:51 UTC
Temperature: 18.3°C (65°F)
Dewpoint: -3.3°C (26°F) [RH = 23%]
Pressure (altimeter): 30.31 inches Hg (1026.5 mb)
[Sea-level pressure: 1026.5 mb]
Winds: from the S (170 degrees) at 10 MPH (9 knots; 4.7 m/s)
gusting to 17 MPH (15 knots; 7.8 m/s)
Visibility: 10 or more miles (16+ km)
Ceiling: at least 12,000 feet AGL
Clouds: few clouds at 18000 feet AGL
few clouds at 22000 feet AGL
scattered clouds at 26000 feet AGL
Present Weather: no significant weather observed at this time
KALB 241551Z 17009G15KT 10SM FEW180 FEW220 SCT260 18/M03 A3031 RMK AO2 SLP265 T01831033

Conditions at: KALB observed 24 April 2018  14:51 UTC
Temperature: 16.1°C (61°F)
Dewpoint: -1.7°C (29°F) [RH = 29%]
Pressure (altimeter): 30.35 inches Hg (1027.9 mb)
[Sea-level pressure: 1027.7 mb]
Winds: from the S (180 degrees) at 9 MPH (8 knots; 4.2 m/s)
Visibility: 10 or more miles (16+ km)
Ceiling: at least 12,000 feet AGL
Clouds: few clouds at 18000 feet AGL
few clouds at 22000 feet AGL
scattered clouds at 26000 feet AGL
Present Weather: no significant weather observed at this time
KALB 241451Z 18008KT 10SM FEW180 FEW220 SCT260 16/M02 A3035 RMK AO2 SLP277 SCT V BKN T01611017 58011

Conditions at: KALB observed 24 April 2018  13:51 UTC
Temperature: 13.3°C (56°F)
Dewpoint: -0.6°C (31°F) [RH = 38%]
Pressure (altimeter): 30.36 inches Hg (1028.2 mb)
[Sea-level pressure: 1028.2 mb]
Winds: from the SSE (150 degrees) at 6 MPH (5 knots; 2.6 m/s)
Visibility: 10 or more miles (16+ km)
Ceiling: at least 12,000 feet AGL
Clouds: few clouds at 20000 feet AGL
scattered clouds at 26000 feet AGL
Present Weather: no significant weather observed at this time
KALB 241351Z 15005KT 10SM FEW200 SCT260 13/M01 A3036 RMK AO2 SLP282 T01331006

Conditions at: KALB observed 24 April 2018  12:51 UTC
Temperature: 11.1°C (52°F)
Dewpoint: -1.1°C (30°F) [RH = 43%]
Pressure (altimeter): 30.37 inches Hg (1028.5 mb)
[Sea-level pressure: 1028.5 mb]
Winds: from the SSE (160 degrees) at 12 MPH (10 knots; 5.2 m/s)
Visibility: 10 or more miles (16+ km)
Ceiling: 26000 feet AGL
Clouds: few clouds at 22000 feet AGL
broken clouds at 26000 feet AGL
Present Weather: no significant weather observed at this time
KALB 241251Z 16010KT 10SM FEW220 BKN260 11/M01 A3037 RMK AO2 SLP285 T01111011

Conditions at: KALB observed 24 April 2018  11:51 UTC
Temperature: 10.0°C (50°F)
Dewpoint: -1.7°C (29°F) [RH = 44%]
Pressure (altimeter): 30.38 inches Hg (1028.9 mb)
[Sea-level pressure: 1028.8 mb]
Winds: from the S (170 degrees) at 7 MPH (6 knots; 3.1 m/s)
Visibility: 10 or more miles (16+ km)
Ceiling: 26000 feet AGL
Clouds: few clouds at 22000 feet AGL
broken clouds at 26000 feet AGL
Present Weather: no significant weather observed at this time
KALB 241151Z 17006KT 10SM FEW220 BKN260 10/M02 A3038 RMK AO2 SLP288 T01001017 10111 20072 53009

Conditions at: KALB observed 24 April 2018  10:51 UTC
Temperature: 8.3°C (47°F)
Dewpoint: -2.2°C (28°F) [RH = 47%]
Pressure (altimeter): 30.37 inches Hg (1028.5 mb)
[Sea-level pressure: 1028.5 mb]
Winds: from the S (170 degrees) at 9 MPH (8 knots; 4.2 m/s)
Visibility: 10 or more miles (16+ km)
Ceiling: 26000 feet AGL
Clouds: broken clouds at 26000 feet AGL
Present Weather: no significant weather observed at this time
KALB 241051Z 17008KT 10SM BKN260 08/M02 A3037 RMK AO2 SLP285 T00831022

Conditions at: KALB observed 24 April 2018  09:51 UTC
Temperature: 7.2°C (45°F)
Dewpoint: -3.3°C (26°F) [RH = 47%]
Pressure (altimeter): 30.36 inches Hg (1028.2 mb)
[Sea-level pressure: 1028.1 mb]
Winds: from the S (170 degrees) at 6 MPH (5 knots; 2.6 m/s)
Visibility: 10 or more miles (16+ km)
Ceiling: at least 12,000 feet AGL
Clouds: scattered clouds at 26000 feet AGL
Present Weather: no significant weather observed at this time
KALB 240951Z 17005KT 10SM SCT260 07/M03 A3036 RMK AO2 SLP281 T00721033

Conditions at: KALB observed 24 April 2018  08:51 UTC
Temperature: 7.8°C (46°F)
Dewpoint: -3.9°C (25°F) [RH = 43%]
Pressure (altimeter): 30.35 inches Hg (1027.9 mb)
[Sea-level pressure: 1027.9 mb]
Winds: from the S (180 degrees) at 6 MPH (5 knots; 2.6 m/s)
Visibility: 10 or more miles (16+ km)
Ceiling: at least 12,000 feet AGL
Clouds: few clouds at 26000 feet AGL
Present Weather: no significant weather observed at this time
KALB 240851Z 18005KT 10SM FEW260 08/M04 A3035 RMK AO2 SLP279 T00781039 56002

Conditions at: KALB observed 24 April 2018  07:51 UTC
Temperature: 8.9°C (48°F)
Dewpoint: -4.4°C (24°F) [RH = 39%]
Pressure (altimeter): 30.36 inches Hg (1028.2 mb)
[Sea-level pressure: 1028.1 mb]
Winds: from the S (180 degrees) at 7 MPH (6 knots; 3.1 m/s)
Visibility: 10 or more miles (16+ km)
Ceiling: at least 12,000 feet AGL
Clouds: few clouds at 26000 feet AGL
Present Weather: no significant weather observed at this time
KALB 240751Z 18006KT 10SM FEW260 09/M04 A3036 RMK AO2 SLP281 T00891044

Conditions at: KALB observed 24 April 2018  06:51 UTC
Temperature: 10.0°C (50°F)
Dewpoint: -4.4°C (24°F) [RH = 36%]
Pressure (altimeter): 30.35 inches Hg (1027.9 mb)
[Sea-level pressure: 1027.9 mb]
Winds: from the S (170 degrees) at 6 MPH (5 knots; 2.6 m/s)
Visibility: 10 or more miles (16+ km)
Ceiling: at least 12,000 feet AGL
Clouds: scattered clouds at 26000 feet AGL
Present Weather: no significant weather observed at this time
KALB 240651Z 17005KT 10SM SCT260 10/M04 A3035 RMK AO2 SLP279 T01001044

Conditions at: KALB observed 24 April 2018  05:51 UTC
Temperature: 11.1°C (52°F)
Dewpoint: -4.4°C (24°F) [RH = 33%]
Pressure (altimeter): 30.36 inches Hg (1028.2 mb)
[Sea-level pressure: 1028.1 mb]
Winds: from the S (170 degrees) at 10 MPH (9 knots; 4.7 m/s)
Visibility: 10 or more miles (16+ km)
Ceiling: 26000 feet AGL
Clouds: broken clouds at 26000 feet AGL
Present Weather: no significant weather observed at this time
KALB 240551Z 17009KT 10SM BKN260 11/M04 A3036 RMK AO2 SLP281 T01111044 10178 20106 51004

Conditions at: KALB observed 24 April 2018  04:51 UTC
Temperature: 11.7°C (53°F)
Dewpoint: -4.4°C (24°F) [RH = 32%]
Pressure (altimeter): 30.36 inches Hg (1028.2 mb)
[Sea-level pressure: 1028.1 mb]
Winds: from the S (170 degrees) at 14 MPH (12 knots; 6.2 m/s)
Visibility: 10 or more miles (16+ km)
Ceiling: 26000 feet AGL
Clouds: broken clouds at 26000 feet AGL
Present Weather: no significant weather observed at this time
KALB 240451Z 17012KT 10SM BKN260 12/M04 A3036 RMK AO2 SLP281 BKN V SCT T01171044 402061011